Pontiac, Michigan
Current Conditions -  °F | °C
As of 5:53 AM on Monday 20 Oct 2014 (Local Time) from KPTK Reporting Station
Overcast Overcast  
Wind Chill: 41°   Ceiling: 4700
Heat Index: 45°   Visibility: 10mi
Dew Point: 42°   Wind: 8mph
Humidity: 90%   Direction: 190°S
Pressure: 29.85"   Gusts: NA
Location:  42.64°N, 83.29°W
Report Text: KPTK 200953Z 19007KT 10SM OVC047 07/06 A2985 RMK AO2 RAE35 SLP113 FIRST AUGMENTED OBS OF THE DAY P0001 T00720056
Loading
Personal Weather Stations






























Interactive Weather Map
Tropical Storm Tracking
New forecast layout! Learn more

10-Day Weather Forecast

Advertisements
Track Severe Weather on mobile